Time;durP1;ratioP1;P1;durP2;ratioP2;P2;SDS_P1;SDS_P2;PMS_P1;PMS_P2;Temp;Humidity;BMP_temperature;BMP_pressure;BME280_temperature;BME280_humidity;BME280_pressure;Samples;Min_cycle;Max_cycle;Signal;HPM_P1;HPM_P2
2021/07/17 00:01:47;;;;;;;15.23;13.73;;;21.60;99.90;;;;;;5052584;28;20857;-77
2021/07/17 00:04:14;;;;;;;19.43;15.00;;;21.50;99.90;;;;;;5052608;28;20437;-77
2021/07/17 00:06:42;;;;;;;16.20;14.50;;;21.60;99.90;;;;;;5051990;28;20509;-77
2021/07/17 00:09:08;;;;;;;15.63;13.97;;;21.70;99.90;;;;;;5052596;28;20888;-76
2021/07/17 00:11:35;;;;;;;16.17;14.03;;;21.60;99.90;;;;;;5052329;28;20492;-77
2021/07/17 00:14:01;;;;;;;14.37;12.90;;;21.70;99.90;;;;;;5052521;28;20481;-77
2021/07/17 00:16:28;;;;;;;18.30;14.50;;;21.60;99.90;;;;;;5052273;28;20553;-77
2021/07/17 00:18:55;;;;;;;16.00;13.93;;;21.70;99.90;;;;;;5052574;28;20481;-77
2021/07/17 00:21:23;;;;;;;14.60;13.00;;;21.60;99.90;;;;;;5052535;28;20485;-77
2021/07/17 00:23:51;;;;;;;18.93;13.67;;;21.60;99.90;;;;;;5052230;28;20874;-77
2021/07/17 00:26:18;;;;;;;15.27;13.87;;;21.70;99.90;;;;;;5052065;28;20462;-77
2021/07/17 00:28:44;;;;;;;14.83;13.27;;;21.70;99.90;;;;;;5055191;28;20434;-77
2021/07/17 00:31:11;;;;;;;14.00;12.43;;;21.80;99.90;;;;;;5056006;28;20472;-77
2021/07/17 00:33:37;;;;;;;14.37;12.07;;;21.80;99.90;;;;;;5056066;28;20477;-77
2021/07/17 00:36:05;;;;;;;15.80;13.90;;;21.80;99.90;;;;;;5056228;28;20929;-77
2021/07/17 00:38:31;;;;;;;16.60;14.60;;;21.80;99.90;;;;;;5055692;28;20860;-77
2021/07/17 00:40:59;;;;;;;16.60;13.23;;;21.80;99.90;;;;;;5055627;28;20475;-77
2021/07/17 00:43:26;;;;;;;17.07;13.80;;;21.80;99.90;;;;;;5056046;28;20518;-77
2021/07/17 00:45:53;;;;;;;16.83;13.70;;;21.70;99.90;;;;;;5055749;28;20497;-77
2021/07/17 00:48:20;;;;;;;15.23;13.10;;;21.70;99.90;;;;;;5055876;28;20500;-77
2021/07/17 00:50:46;;;;;;;18.27;14.00;;;21.60;99.90;;;;;;5055772;28;20476;-77
2021/07/17 00:53:13;;;;;;;13.73;12.20;;;21.60;99.90;;;;;;5055677;28;20485;-77
2021/07/17 00:55:43;;;;;;;14.93;11.87;;;21.60;99.90;;;;;;5055060;28;21043;-77
2021/07/17 00:58:13;;;;;;;17.63;13.23;;;21.60;99.90;;;;;;5055665;28;20430;-77
2021/07/17 01:00:41;;;;;;;14.77;13.00;;;21.70;99.90;;;;;;5055847;28;20481;-78
2021/07/17 01:03:08;;;;;;;15.60;12.20;;;21.60;99.90;;;;;;5055531;28;20480;-77
2021/07/17 01:05:35;;;;;;;14.50;12.10;;;21.60;99.90;;;;;;5054989;28;20514;-77
2021/07/17 01:08:02;;;;;;;13.33;12.13;;;21.60;99.90;;;;;;5055480;28;20477;-76
2021/07/17 01:10:30;;;;;;;16.03;11.23;;;21.60;99.90;;;;;;5055119;28;20450;-76
2021/07/17 01:12:56;;;;;;;14.10;12.13;;;21.60;99.90;;;;;;5055220;28;20942;-77
2021/07/17 01:15:24;;;;;;;16.03;13.00;;;21.60;99.90;;;;;;5054905;28;20538;-77
2021/07/17 01:17:51;;;;;;;13.17;11.73;;;21.60;99.90;;;;;;5055229;28;20446;-77
2021/07/17 01:20:20;;;;;;;12.60;11.37;;;21.50;99.90;;;;;;5055137;28;20441;-77
2021/07/17 01:22:48;;;;;;;13.00;11.53;;;21.60;99.90;;;;;;5055000;28;20527;-77
2021/07/17 01:25:22;;;;;;;13.03;11.70;;;21.60;99.90;;;;;;5054908;28;20462;-77
2021/07/17 01:27:49;;;;;;;11.80;10.53;;;21.70;99.90;;;;;;5054835;28;20466;-77
2021/07/17 01:30:19;;;;;;;13.80;11.57;;;21.70;99.90;;;;;;5054734;28;20548;-77
2021/07/17 01:32:46;;;;;;;12.90;11.23;;;21.60;99.90;;;;;;5054499;28;20987;-77
2021/07/17 01:35:12;;;;;;;15.40;12.60;;;21.70;99.90;;;;;;5054597;28;20914;-76
2021/07/17 01:37:39;;;;;;;14.67;12.60;;;21.70;99.90;;;;;;5054762;28;20520;-77
2021/07/17 01:40:18;;;;;;;14.07;11.57;;;21.70;99.90;;;;;;5053584;28;20450;-77
2021/07/17 01:42:44;;;;;;;13.17;10.57;;;21.70;99.90;;;;;;5054662;28;20465;-77
2021/07/17 01:45:20;;;;;;;12.67;11.23;;;21.70;99.90;;;;;;5054598;28;20504;-77
2021/07/17 01:47:46;;;;;;;12.80;10.97;;;21.70;99.90;;;;;;5054159;28;20429;-77
2021/07/17 01:50:13;;;;;;;12.13;10.77;;;21.70;99.90;;;;;;5054373;28;20867;-77
2021/07/17 01:52:40;;;;;;;17.00;10.57;;;21.60;99.90;;;;;;5054747;28;20445;-77
2021/07/17 01:55:09;;;;;;;13.90;11.40;;;21.60;99.90;;;;;;5054555;28;20505;-77
2021/07/17 01:57:36;;;;;;;13.73;10.70;;;21.60;99.90;;;;;;5056760;28;20481;-76
2021/07/17 02:00:04;;;;;;;12.20;10.70;;;21.70;99.90;;;;;;5063208;28;20458;-76
2021/07/17 02:02:31;;;;;;;12.50;11.20;;;21.60;99.90;;;;;;5061265;28;20877;-77
2021/07/17 02:05:02;;;;;;;16.50;12.10;;;21.70;99.90;;;;;;5064696;28;20501;-76
2021/07/17 02:07:29;;;;;;;12.47;11.17;;;21.60;99.90;;;;;;5062087;28;20484;-76
2021/07/17 02:09:55;;;;;;;13.30;11.27;;;21.60;99.90;;;;;;5058796;28;20860;-77
2021/07/17 02:12:23;;;;;;;11.90;10.43;;;21.70;99.90;;;;;;5056488;28;20514;-77
2021/07/17 02:14:51;;;;;;;12.00;10.77;;;21.50;99.90;;;;;;5053879;28;20524;-77
2021/07/17 02:17:17;;;;;;;16.17;11.50;;;21.60;99.90;;;;;;5054176;28;20450;-76
2021/07/17 02:19:44;;;;;;;13.33;11.50;;;21.60;99.90;;;;;;5053560;28;21017;-77
2021/07/17 02:22:11;;;;;;;12.50;11.30;;;21.60;99.90;;;;;;5053835;28;20528;-77
2021/07/17 02:24:38;;;;;;;13.50;12.07;;;21.30;99.90;;;;;;5053974;28;20525;-76
2021/07/17 02:27:05;;;;;;;12.43;10.57;;;21.50;99.90;;;;;;5053778;28;20529;-77
2021/07/17 02:29:33;;;;;;;13.60;11.60;;;21.40;99.90;;;;;;5053662;28;20536;-77
2021/07/17 02:32:00;;;;;;;15.13;11.60;;;21.30;99.90;;;;;;5053586;28;20524;-77
2021/07/17 02:34:26;;;;;;;15.37;11.47;;;21.40;99.90;;;;;;5053590;28;20441;-77
2021/07/17 02:36:53;;;;;;;12.93;11.40;;;21.40;99.90;;;;;;5053452;28;20573;-77
2021/07/17 02:39:19;;;;;;;15.10;10.17;;;21.40;99.90;;;;;;5053393;28;20881;-77
2021/07/17 02:41:46;;;;;;;13.67;10.80;;;21.30;99.90;;;;;;5053071;28;20975;-77
2021/07/17 02:44:12;;;;;;;13.77;9.97;;;21.20;99.90;;;;;;5053388;28;20484;-77
2021/07/17 02:46:40;;;;;;;15.03;10.10;;;21.10;99.90;;;;;;5052886;28;20980;-77
2021/07/17 02:49:07;;;;;;;17.20;11.23;;;21.20;99.90;;;;;;5053317;28;20532;-77
2021/07/17 02:51:34;;;;;;;13.30;9.57;;;21.20;99.90;;;;;;5053018;28;20449;-77
2021/07/17 02:54:00;;;;;;;12.80;9.40;;;21.10;99.90;;;;;;5053149;28;20449;-77
2021/07/17 02:56:27;;;;;;;14.10;10.47;;;21.10;99.90;;;;;;5053200;28;20544;-78
2021/07/17 02:58:53;;;;;;;14.50;10.63;;;21.10;99.90;;;;;;5053087;28;20477;-76
2021/07/17 03:01:20;;;;;;;10.30;9.20;;;21.10;99.90;;;;;;5053222;28;20480;-77
2021/07/17 03:03:47;;;;;;;15.07;10.30;;;21.10;99.90;;;;;;5053042;28;20533;-77
2021/07/17 03:06:14;;;;;;;10.67;9.60;;;21.10;99.90;;;;;;5052795;28;20508;-77
2021/07/17 03:08:41;;;;;;;11.43;10.33;;;21.10;99.90;;;;;;5053225;28;20495;-77
2021/07/17 03:11:07;;;;;;;10.80;9.80;;;21.10;99.90;;;;;;5053003;28;20476;-77
2021/07/17 03:13:34;;;;;;;13.87;9.70;;;21.10;99.90;;;;;;5053043;28;20488;-76
2021/07/17 03:16:00;;;;;;;10.80;9.80;;;21.00;99.90;;;;;;5052766;28;20572;-76
2021/07/17 03:18:27;;;;;;;18.23;10.80;;;21.10;99.90;;;;;;5053243;28;20867;-76
2021/07/17 03:20:55;;;;;;;16.27;11.13;;;21.00;99.90;;;;;;5053015;28;20528;-76
2021/07/17 03:23:21;;;;;;;11.67;9.27;;;21.10;99.90;;;;;;5053135;28;20503;-76
2021/07/17 03:25:48;;;;;;;14.73;9.60;;;21.10;99.90;;;;;;5053025;28;20465;-76
2021/07/17 03:28:14;;;;;;;11.73;9.87;;;21.10;99.90;;;;;;5053002;28;20524;-76
2021/07/17 03:30:41;;;;;;;12.07;10.17;;;21.20;99.90;;;;;;5053196;28;20473;-76
2021/07/17 03:33:08;;;;;;;13.83;10.30;;;21.20;99.90;;;;;;5052980;28;20446;-77
2021/07/17 03:35:34;;;;;;;10.53;9.50;;;21.30;99.90;;;;;;5052649;28;20481;-76
2021/07/17 03:38:02;;;;;;;11.43;9.87;;;21.30;99.90;;;;;;5052843;28;20934;-76
2021/07/17 03:40:29;;;;;;;12.23;11.10;;;21.20;99.90;;;;;;5052847;28;20480;-76
2021/07/17 03:42:56;;;;;;;12.57;11.27;;;21.20;99.90;;;;;;5052732;28;20473;-76
2021/07/17 03:45:22;;;;;;;12.03;10.93;;;21.00;99.90;;;;;;5053234;28;20853;-76
2021/07/17 03:47:49;;;;;;;13.63;11.00;;;20.80;99.90;;;;;;5052611;28;20469;-76
2021/07/17 03:50:15;;;;;;;11.07;9.73;;;20.50;99.90;;;;;;5052579;28;20518;-76
2021/07/17 03:52:42;;;;;;;13.53;9.83;;;20.30;99.90;;;;;;5052506;28;20449;-76
2021/07/17 03:55:10;;;;;;;11.40;10.30;;;20.20;99.90;;;;;;5052272;28;20505;-76
2021/07/17 03:57:37;;;;;;;15.90;10.90;;;20.20;99.90;;;;;;5052334;28;20528;-76
2021/07/17 04:00:06;;;;;;;12.33;11.03;;;20.20;99.90;;;;;;5052562;28;20511;-75
2021/07/17 04:02:39;;;;;;;12.33;10.07;;;20.20;99.90;;;;;;5053488;28;20889;-76
2021/07/17 04:05:07;;;;;;;13.17;9.10;;;20.20;99.90;;;;;;5071320;22;20583;-77
2021/07/17 04:07:34;;;;;;;11.83;9.93;;;20.40;99.90;;;;;;5077840;28;20789;-78
2021/07/17 04:10:01;;;;;;;14.40;11.87;;;20.30;99.90;;;;;;5078358;28;20874;-77
2021/07/17 04:12:29;;;;;;;13.50;11.30;;;20.40;99.90;;;;;;5077031;28;20475;-77
2021/07/17 04:14:55;;;;;;;12.10;10.07;;;20.30;99.90;;;;;;5078005;28;20472;-78
2021/07/17 04:17:22;;;;;;;17.03;9.87;;;20.50;99.90;;;;;;5077962;28;20566;-78
2021/07/17 04:19:49;;;;;;;15.80;10.23;;;20.50;99.90;;;;;;5078411;28;20946;-78
2021/07/17 04:22:15;;;;;;;15.03;11.20;;;20.60;99.90;;;;;;5078310;28;20475;-78
2021/07/17 04:24:42;;;;;;;12.47;11.00;;;20.50;99.90;;;;;;5080177;28;20486;-78
2021/07/17 04:27:08;;;;;;;12.47;10.43;;;20.50;99.90;;;;;;5078086;28;20492;-78
2021/07/17 04:29:36;;;;;;;12.70;10.37;;;20.60;99.90;;;;;;5078708;28;20448;-78
2021/07/17 04:32:03;;;;;;;16.73;11.30;;;20.60;99.90;;;;;;5077994;28;20928;-78
2021/07/17 04:34:30;;;;;;;10.60;9.37;;;20.60;99.90;;;;;;5078275;28;20470;-78
2021/07/17 04:36:57;;;;;;;15.40;10.37;;;20.70;99.90;;;;;;5077865;28;20480;-77
2021/07/17 04:39:24;;;;;;;13.57;9.67;;;20.90;99.90;;;;;;5077803;28;20482;-78
2021/07/17 04:41:51;;;;;;;12.17;10.40;;;20.80;99.90;;;;;;5077685;28;20510;-78
2021/07/17 04:44:18;;;;;;;16.83;10.33;;;20.80;99.90;;;;;;5078777;28;20923;-78
2021/07/17 04:46:46;;;;;;;20.90;15.47;;;20.80;99.90;;;;;;5078124;28;20479;-78
2021/07/17 04:49:12;;;;;;;27.43;21.10;;;20.80;99.90;;;;;;5085270;28;20449;-78
2021/07/17 04:51:39;;;;;;;23.30;16.20;;;21.00;99.90;;;;;;5082045;28;20455;-76
2021/07/17 04:54:05;;;;;;;14.53;12.27;;;21.00;99.90;;;;;;5080803;28;20441;-77
2021/07/17 04:56:32;;;;;;;14.47;11.97;;;21.00;99.90;;;;;;5079449;28;21006;-78
2021/07/17 04:58:59;;;;;;;13.63;11.77;;;20.90;99.90;;;;;;5079059;28;20448;-78
2021/07/17 05:01:25;;;;;;;19.00;15.30;;;20.80;99.90;;;;;;5079227;28;20971;-78
2021/07/17 05:03:53;;;;;;;18.77;11.90;;;20.90;99.90;;;;;;5079429;28;20831;-79
2021/07/17 05:06:20;;;;;;;13.93;12.37;;;20.90;99.90;;;;;;5078107;28;20493;-78
2021/07/17 05:08:46;;;;;;;17.73;15.20;;;20.80;99.90;;;;;;5078936;28;20498;-78
2021/07/17 05:11:13;;;;;;;18.97;14.30;;;20.90;99.90;;;;;;5079793;28;20881;-78
2021/07/17 05:13:39;;;;;;;13.37;11.80;;;20.90;99.90;;;;;;5079512;28;20506;-78
2021/07/17 05:16:06;;;;;;;24.50;18.07;;;21.00;99.90;;;;;;5085814;28;20538;-76
2021/07/17 05:18:33;;;;;;;13.57;12.10;;;21.00;99.90;;;;;;5079138;28;20999;-78
2021/07/17 05:21:01;;;;;;;20.30;15.00;;;20.90;99.90;;;;;;5077239;28;20519;-77
2021/07/17 05:23:28;;;;;;;14.23;11.60;;;20.90;99.90;;;;;;5078205;28;20892;-78
2021/07/17 05:25:54;;;;;;;21.00;16.80;;;20.80;99.90;;;;;;5077400;28;20555;-78
2021/07/17 05:28:22;;;;;;;58.87;30.30;;;20.90;99.90;;;;;;5079067;28;20789;-78
2021/07/17 05:30:50;;;;;;;13.10;11.40;;;21.00;99.90;;;;;;5077368;28;20453;-78
2021/07/17 05:33:17;;;;;;;13.67;11.30;;;21.00;99.90;;;;;;5086020;28;20445;-78
2021/07/17 05:35:43;;;;;;;16.40;13.17;;;20.90;99.90;;;;;;5092986;28;20487;-78
2021/07/17 05:38:11;;;;;;;21.90;13.00;;;21.00;99.90;;;;;;5092305;28;20485;-77
2021/07/17 05:40:38;;;;;;;24.00;19.13;;;21.30;99.90;;;;;;5077630;28;20448;-78
2021/07/17 05:43:05;;;;;;;18.60;12.93;;;21.00;99.90;;;;;;5076751;28;20519;-78
2021/07/17 05:45:32;;;;;;;22.10;17.50;;;21.00;99.90;;;;;;5077050;28;20473;-78
2021/07/17 05:47:59;;;;;;;16.10;14.40;;;21.20;99.90;;;;;;5077550;28;20437;-78
2021/07/17 05:50:25;;;;;;;20.60;17.17;;;21.30;99.90;;;;;;5077186;28;20935;-78
2021/07/17 05:52:52;;;;;;;27.73;18.00;;;21.30;99.90;;;;;;5076682;28;20487;-79
2021/07/17 05:55:20;;;;;;;16.00;14.40;;;21.40;99.90;;;;;;5076907;28;20499;-77
2021/07/17 05:57:47;;;;;;;19.37;15.20;;;21.40;99.90;;;;;;5076508;28;21025;-77
2021/07/17 06:00:19;;;;;;;22.10;18.40;;;21.50;99.90;;;;;;5077826;28;20440;-77
2021/07/17 06:02:45;;;;;;;23.47;19.27;;;21.60;99.90;;;;;;5077149;28;20775;-78
2021/07/17 06:05:12;;;;;;;19.00;15.60;;;21.50;99.90;;;;;;5077110;28;20479;-78
2021/07/17 06:07:39;;;;;;;23.50;20.90;;;21.70;99.90;;;;;;5077279;28;20475;-78
2021/07/17 06:10:06;;;;;;;20.30;16.47;;;21.50;99.90;;;;;;5076686;28;20441;-77
2021/07/17 06:12:34;;;;;;;18.37;15.43;;;21.60;99.90;;;;;;5075995;28;20483;-77
2021/07/17 06:15:01;;;;;;;18.50;15.03;;;21.90;99.90;;;;;;5075490;28;20468;-77
2021/07/17 06:17:27;;;;;;;19.23;15.60;;;21.60;99.90;;;;;;5075637;28;20479;-77
2021/07/17 06:19:54;;;;;;;19.27;17.07;;;21.70;99.90;;;;;;5075769;28;20471;-77
2021/07/17 06:22:20;;;;;;;18.50;16.60;;;21.70;99.90;;;;;;5074515;28;20484;-77
2021/07/17 06:24:47;;;;;;;19.70;15.50;;;21.70;99.90;;;;;;5073926;28;20483;-77
2021/07/17 06:27:14;;;;;;;17.70;15.30;;;21.90;99.90;;;;;;5074876;28;20515;-78
2021/07/17 06:29:41;;;;;;;20.90;17.07;;;21.90;99.90;;;;;;5075310;28;20449;-77
2021/07/17 06:32:08;;;;;;;18.70;16.03;;;21.80;99.90;;;;;;5076472;28;20440;-78
2021/07/17 06:34:35;;;;;;;20.70;16.57;;;21.90;99.90;;;;;;5075629;28;20506;-77
2021/07/17 06:37:01;;;;;;;21.13;16.93;;;21.90;99.90;;;;;;5075628;28;20480;-77
2021/07/17 06:39:28;;;;;;;19.43;17.33;;;21.70;99.90;;;;;;5075537;28;20472;-77
2021/07/17 06:41:55;;;;;;;23.90;18.57;;;21.70;99.90;;;;;;5081128;28;20448;-77
2021/07/17 06:44:21;;;;;;;21.83;18.13;;;21.70;99.90;;;;;;5084021;28;20837;-77
2021/07/17 06:46:49;;;;;;;21.57;19.23;;;21.60;99.90;;;;;;5083603;28;20491;-77
2021/07/17 06:49:16;;;;;;;21.47;18.57;;;21.60;99.90;;;;;;5081012;28;20440;-77
2021/07/17 06:51:42;;;;;;;26.60;17.80;;;21.60;99.90;;;;;;5075368;28;20444;-77
2021/07/17 06:54:09;;;;;;;24.63;18.17;;;21.60;99.90;;;;;;5075386;28;20502;-77
2021/07/17 06:56:36;;;;;;;26.37;18.40;;;21.60;99.90;;;;;;5075217;28;20499;-78
2021/07/17 06:59:02;;;;;;;23.13;18.47;;;21.60;99.90;;;;;;5075684;28;20444;-77
2021/07/17 07:01:29;;;;;;;23.23;17.50;;;21.60;99.90;;;;;;5076057;28;20503;-77
2021/07/17 07:03:57;;;;;;;25.93;19.87;;;21.70;99.90;;;;;;5080619;28;20498;-78
2021/07/17 07:06:23;;;;;;;21.37;17.67;;;21.90;99.90;;;;;;5078251;28;20477;-79
2021/07/17 07:08:50;;;;;;;22.97;20.43;;;21.80;99.90;;;;;;5077426;28;20483;-77
2021/07/17 07:11:16;;;;;;;20.07;18.00;;;21.90;99.90;;;;;;5076109;28;20449;-76
2021/07/17 07:13:43;;;;;;;21.67;19.43;;;21.90;99.90;;;;;;5078491;28;20478;-78
2021/07/17 07:16:10;;;;;;;20.90;18.67;;;22.00;99.90;;;;;;5078965;28;20464;-77
2021/07/17 07:18:36;;;;;;;20.77;18.57;;;22.00;99.90;;;;;;5079803;28;20516;-76
2021/07/17 07:21:04;;;;;;;24.33;20.33;;;22.10;99.90;;;;;;5077937;28;20444;-77
2021/07/17 07:23:31;;;;;;;21.77;18.73;;;22.10;99.90;;;;;;5076250;28;20966;-78
2021/07/17 07:25:57;;;;;;;24.37;18.87;;;22.10;99.90;;;;;;5075512;28;20495;-77
2021/07/17 07:28:24;;;;;;;26.13;19.67;;;22.10;99.90;;;;;;5075280;28;20467;-77
2021/07/17 07:30:50;;;;;;;25.30;20.20;;;22.10;99.90;;;;;;5074231;28;20425;-77
2021/07/17 07:33:17;;;;;;;30.03;19.80;;;22.10;99.90;;;;;;5074705;28;20448;-77
2021/07/17 07:35:44;;;;;;;24.83;19.30;;;;;;;;;;5074704;28;20487;-78
2021/07/17 07:38:12;;;;;;;29.87;18.73;;;22.30;99.90;;;;;;5078846;28;20480;-78
2021/07/17 07:40:39;;;;;;;21.33;18.47;;;22.40;99.90;;;;;;5080013;28;20494;-77
2021/07/17 07:43:05;;;;;;;20.33;18.07;;;22.50;99.90;;;;;;5081053;28;20476;-77
2021/07/17 07:45:32;;;;;;;19.50;17.33;;;22.40;99.90;;;;;;5080028;28;20559;-77
2021/07/17 07:47:58;;;;;;;22.87;19.23;;;22.50;99.90;;;;;;5079657;28;20523;-77
2021/07/17 07:50:25;;;;;;;22.53;18.90;;;22.60;99.90;;;;;;5079707;28;20518;-76
2021/07/17 07:52:52;;;;;;;19.90;16.80;;;22.70;99.90;;;;;;5085309;28;20479;-77
2021/07/17 07:55:20;;;;;;;18.37;16.40;;;22.70;99.90;;;;;;5086528;28;20469;-76
2021/07/17 07:57:48;;;;;;;18.80;16.87;;;22.60;99.90;;;;;;5083946;28;20483;-76
2021/07/17 08:00:17;;;;;;;19.53;17.50;;;22.60;99.90;;;;;;5080307;28;20975;-76
2021/07/17 08:02:43;;;;;;;17.17;15.37;;;22.50;99.90;;;;;;5085805;28;20466;-77
2021/07/17 08:05:11;;;;;;;17.90;15.93;;;22.30;99.90;;;;;;5080785;28;20451;-77
2021/07/17 08:07:37;;;;;;;17.37;15.57;;;22.60;99.90;;;;;;5077762;28;20436;-76
2021/07/17 08:10:05;;;;;;;18.00;16.20;;;22.60;99.90;;;;;;5078247;28;20456;-77
2021/07/17 08:12:33;;;;;;;18.00;16.10;;;22.70;99.90;;;;;;5077681;28;20449;-77
2021/07/17 08:14:59;;;;;;;19.47;15.37;;;23.10;99.90;;;;;;5081997;28;20522;-78
2021/07/17 08:17:26;;;;;;;18.43;16.37;;;22.80;99.90;;;;;;5079963;28;20913;-77
2021/07/17 08:19:52;;;;;;;21.67;18.33;;;22.80;99.90;;;;;;5078123;28;20526;-77
2021/07/17 08:22:19;;;;;;;19.10;17.20;;;22.90;99.90;;;;;;5077515;28;20449;-77
2021/07/17 08:24:45;;;;;;;20.30;16.23;;;22.90;99.90;;;;;;5082465;28;20505;-77
2021/07/17 08:27:13;;;;;;;19.20;15.40;;;23.00;99.90;;;;;;5086159;28;20461;-77
2021/07/17 08:29:41;;;;;;;16.80;15.17;;;23.00;99.90;;;;;;5087116;28;20446;-76
2021/07/17 08:32:07;;;;;;;19.30;17.30;;;23.00;99.90;;;;;;5087280;28;20948;-78
2021/07/17 08:34:34;;;;;;;17.73;15.63;;;23.10;99.90;;;;;;5085216;28;20440;-76
2021/07/17 08:37:00;;;;;;;18.43;16.53;;;23.20;99.90;;;;;;5085126;28;20882;-77
2021/07/17 08:39:27;;;;;;;19.40;17.60;;;23.30;99.90;;;;;;5080979;28;20936;-77
2021/07/17 08:41:55;;;;;;;21.67;16.60;;;23.30;99.90;;;;;;5079671;28;20449;-79
2021/07/17 08:44:22;;;;;;;17.83;16.00;;;23.10;99.90;;;;;;5079237;28;20460;-78
2021/07/17 08:46:54;;;;;;;18.47;16.67;;;23.00;99.90;;;;;;5078642;28;20516;-78
2021/07/17 08:49:23;;;;;;;17.57;15.60;;;23.00;99.90;;;;;;5078166;28;20456;-78
2021/07/17 08:51:52;;;;;;;18.03;16.10;;;23.00;99.90;;;;;;5078778;28;20448;-78
2021/07/17 08:54:19;;;;;;;17.50;15.80;;;23.00;99.90;;;;;;5079161;28;20502;-79
2021/07/17 08:56:46;;;;;;;16.70;15.00;;;23.00;99.90;;;;;;5078797;28;20489;-77
2021/07/17 08:59:12;;;;;;;18.03;15.17;;;23.00;99.90;;;;;;5078200;28;20481;-77
2021/07/17 09:01:39;;;;;;;17.93;16.00;;;23.10;99.90;;;;;;5077922;28;20489;-77
2021/07/17 09:04:08;;;;;;;20.97;15.47;;;22.90;99.90;;;;;;5077892;28;20476;-79
2021/07/17 09:06:50;;;;;;;20.40;15.67;;;22.80;99.90;;;;;;5114958;27;20562;-78
2021/07/17 09:09:28;;;;;;;16.23;14.57;;;22.90;99.90;;;;;;5115363;28;20971;-79
2021/07/17 09:11:55;;;;;;;15.90;14.30;;;23.00;99.90;;;;;;5115302;28;20434;-79
2021/07/17 09:14:35;;;;;;;18.40;16.50;;;23.00;99.90;;;;;;5116683;28;20472;-79
2021/07/17 09:17:01;;;;;;;21.77;15.70;;;23.10;99.90;;;;;;5115593;28;20470;-76
2021/07/17 09:19:28;;;;;;;18.98;15.35;;;23.10;99.90;;;;;;5122512;22;20517;-77
2021/07/17 09:21:57;;;;;;;17.80;16.07;;;23.00;99.90;;;;;;5051282;28;20226;-77
2021/07/17 09:24:23;;;;;;;17.23;15.53;;;23.10;99.90;;;;;;5056024;28;20433;-77
2021/07/17 09:26:53;;;;;;;17.43;15.70;;;23.10;99.90;;;;;;5063331;28;20508;-77
2021/07/17 09:29:21;;;;;;;19.38;15.65;;;23.30;99.90;;;;;;5059565;28;20569;-77
2021/07/17 09:31:55;;;;;;;19.10;16.10;;;23.00;99.90;;;;;;5051613;28;20290;-77
2021/07/17 09:34:23;;;;;;;18.90;16.83;;;23.10;99.90;;;;;;5050409;28;20931;-77
2021/07/17 09:36:52;;;;;;;19.07;17.17;;;23.20;99.90;;;;;;5050616;28;20451;-77
2021/07/17 09:39:22;;;;;;;21.47;16.90;;;23.20;99.90;;;;;;5050529;28;20469;-77
2021/07/17 09:41:58;;;;;;;17.63;15.87;;;23.40;99.90;;;;;;5051285;28;20476;-77
2021/07/17 09:44:26;;;;;;;16.73;14.70;;;23.40;99.90;;;;;;5051821;28;20880;-77
2021/07/17 09:46:52;;;;;;;18.27;16.37;;;23.30;99.90;;;;;;5050323;28;20538;-77
2021/07/17 09:49:21;;;;;;;16.90;15.17;;;23.30;99.90;;;;;;5050930;28;20553;-77
2021/07/17 09:51:48;;;;;;;17.27;14.10;;;23.30;99.90;;;;;;5049960;28;20548;-77
2021/07/17 09:54:15;;;;;;;18.77;15.65;;;23.40;99.90;;;;;;5050361;28;20203;-77
2021/07/17 09:56:43;;;;;;;15.70;14.10;;;23.50;99.90;;;;;;5050351;28;20191;-79
2021/07/17 09:59:11;;;;;;;16.37;14.53;;;23.50;99.90;;;;;;5053974;28;20495;-77
2021/07/17 10:01:40;;;;;;;17.20;15.40;;;23.60;99.90;;;;;;5058929;28;20864;-75
2021/07/17 10:04:08;;;;;;;21.57;17.10;;;23.60;99.90;;;;;;5049973;28;20822;-76
2021/07/17 10:06:38;;;;;;;16.87;15.07;;;23.50;99.90;;;;;;5049666;28;20485;-76
2021/07/17 10:09:07;;;;;;;19.40;15.43;;;23.30;99.90;;;;;;5050682;28;20443;-77
2021/07/17 10:11:34;;;;;;;16.73;14.40;;;23.60;99.90;;;;;;5049950;28;20452;-77
2021/07/17 10:14:17;;;;;;;18.17;15.13;;;23.60;99.90;;;;;;5049530;28;20483;-77
2021/07/17 10:16:44;;;;;;;17.83;15.80;;;23.60;99.90;;;;;;5044547;28;20494;-77
2021/07/17 10:19:14;;;;;;;18.90;15.77;;;23.80;99.90;;;;;;5036070;28;20834;-77
2021/07/17 10:21:41;;;;;;;17.80;14.77;;;24.00;99.90;;;;;;5036257;28;20838;-77
2021/07/17 10:24:08;;;;;;;15.50;13.90;;;24.10;99.90;;;;;;5039850;28;20454;-78
2021/07/17 10:26:35;;;;;;;17.77;16.03;;;24.20;99.90;;;;;;5040032;28;20507;-76
2021/07/17 10:29:07;;;;;;;20.63;14.70;;;24.60;99.90;;;;;;5037892;28;20521;-80
2021/07/17 10:31:33;;;;;;;20.30;16.60;;;24.30;99.90;;;;;;5037404;28;20476;-79
2021/07/17 10:34:00;;;;;;;17.58;15.00;;;24.20;99.90;;;;;;5039190;28;20472;-77
2021/07/17 10:36:27;;;;;;;18.60;16.47;;;24.20;99.90;;;;;;5057679;28;20226;-78
2021/07/17 10:38:59;;;;;;;16.43;14.80;;;24.20;99.90;;;;;;5054870;28;20444;-79
2021/07/17 10:41:27;;;;;;;17.27;15.53;;;24.30;99.90;;;;;;5042518;28;20457;-78
2021/07/17 10:43:55;;;;;;;18.30;15.77;;;24.20;99.90;;;;;;5039659;28;20457;-81
2021/07/17 10:46:33;;;;;;;17.93;15.60;;;24.10;99.90;;;;;;5039321;28;20489;-78
2021/07/17 10:49:00;;;;;;;17.67;14.90;;;24.00;99.90;;;;;;5039581;28;20433;-79
2021/07/17 10:51:32;;;;;;;17.53;15.63;;;24.20;99.90;;;;;;5039066;28;20449;-77
2021/07/17 10:54:00;;;;;;;18.83;15.80;;;24.60;99.90;;;;;;5039335;28;20471;-77
2021/07/17 10:56:48;;;;;;;17.30;15.10;;;24.50;99.90;;;;;;5038932;28;20278;-77
2021/07/17 10:59:43;;;;;;;16.33;14.63;;;24.70;99.90;;;;;;5044123;28;20227;-79
2021/07/17 11:02:21;;;;;;;18.27;16.30;;;24.90;99.90;;;;;;5044879;28;20501;-79
2021/07/17 11:04:51;;;;;;;16.73;14.97;;;24.90;99.90;;;;;;5043214;28;20935;-77
2021/07/17 11:07:39;;;;;;;17.80;16.03;;;24.70;99.90;;;;;;5039307;28;20447;-78
2021/07/17 11:10:21;;;;;;;17.00;15.27;;;24.90;99.90;;;;;;5039515;28;20563;-79
2021/07/17 11:12:58;;;;;;;16.87;15.30;;;24.80;99.90;;;;;;5037311;28;20473;-80
2021/07/17 11:15:39;;;;;;;18.50;15.93;;;24.80;99.90;;;;;;5039889;28;20470;-80
2021/07/17 11:18:25;;;;;;;17.53;15.70;;;25.00;99.90;;;;;;5039014;28;20438;-79
2021/07/17 11:20:58;;;;;;;19.13;15.77;;;25.20;99.90;;;;;;5037725;28;21058;-78
2021/07/17 11:23:31;;;;;;;17.37;15.77;;;25.10;99.90;;;;;;5036859;28;20438;-77
2021/07/17 11:26:04;;;;;;;18.23;15.70;;;25.00;99.90;;;;;;5036426;28;20471;-78
2021/07/17 11:31:52;;;;;;;17.00;15.23;;;25.10;99.90;;;;;;5036479;28;20930;-77
2021/07/17 11:34:48;;;;;;;17.60;15.30;;;25.20;99.90;;;;;;5038081;28;20794;-77
2021/07/17 11:37:21;;;;;;;15.30;13.73;;;25.30;99.90;;;;;;5042886;28;20489;-77
2021/07/17 11:39:50;;;;;;;15.70;14.20;;;25.40;99.90;;;;;;5040921;28;20501;-77
2021/07/17 11:42:19;;;;;;;16.53;14.73;;;25.50;99.90;;;;;;5042611;28;20473;-78
2021/07/17 11:44:48;;;;;;;18.30;13.70;;;25.60;99.90;;;;;;5042765;28;20508;-78
2021/07/17 11:47:17;;;;;;;17.00;15.30;;;25.70;99.90;;;;;;5038318;28;20934;-77
2021/07/17 11:49:46;;;;;;;15.07;13.47;;;25.70;99.90;;;;;;5035380;28;20529;-77
2021/07/17 11:52:16;;;;;;;15.93;14.33;;;25.60;99.90;;;;;;5034931;28;20463;-76
2021/07/17 11:54:45;;;;;;;14.93;13.40;;;25.50;99.90;;;;;;5034830;28;20465;-76
2021/07/17 11:57:15;;;;;;;14.73;13.30;;;25.40;99.90;;;;;;5034758;28;20611;-76
2021/07/17 11:59:43;;;;;;;15.23;13.80;;;25.40;99.90;;;;;;5036077;28;20509;-76
2021/07/17 12:02:12;;;;;;;18.97;14.50;;;25.50;99.90;;;;;;5035237;28;20537;-76
2021/07/17 12:04:42;;;;;;;15.17;13.80;;;25.70;99.90;;;;;;5034634;28;20489;-75
2021/07/17 12:07:11;;;;;;;14.23;12.57;;;26.00;99.90;;;;;;5035212;28;20477;-77
2021/07/17 12:09:42;;;;;;;15.53;13.63;;;26.10;99.90;;;;;;5034132;28;20505;-78
2021/07/17 12:12:13;;;;;;;15.10;13.50;;;26.00;99.90;;;;;;5034519;28;20430;-78
2021/07/17 12:14:39;;;;;;;15.17;13.77;;;25.90;99.90;;;;;;5034624;28;20467;-76
2021/07/17 12:17:06;;;;;;;14.30;12.87;;;26.00;99.90;;;;;;5034257;28;20645;-76
2021/07/17 12:19:33;;;;;;;14.37;13.00;;;26.10;99.90;;;;;;5033498;28;20521;-76
2021/07/17 12:21:59;;;;;;;16.80;15.10;;;26.10;99.90;;;;;;5034212;28;20483;-77
2021/07/17 12:24:26;;;;;;;13.10;11.45;;;26.30;99.90;;;;;;5041505;28;20508;-81
2021/07/17 12:27:03;;;;;;;12.90;11.70;;;26.30;99.90;;;;;;5038518;28;20226;-78
2021/07/17 12:29:30;;;;;;;14.48;13.13;;;26.40;99.90;;;;;;5037341;28;20640;-78
2021/07/17 12:32:02;;;;;;;14.00;12.50;;;26.40;99.90;;;;;;5034617;28;20231;-76
2021/07/17 12:34:28;;;;;;;12.40;11.20;;;26.50;99.90;;;;;;5034705;28;20447;-75
2021/07/17 12:36:55;;;;;;;13.93;12.50;;;26.60;99.90;;;;;;5034601;28;20536;-76